METAR AND TAF INFORMATION
METAR FOR VABP
ADDS - METARS form results

(0614 UTC 21 November 2018)
Data provider http://aviationweather.gov/metar/data/
 
METAR text: VABP 210600Z 09009KT 5000 HZ NSC 28/12 Q1019 NOSIG
Conditions at: VABP (BHOPAL/BAIRAGARH, IN) observed 0600 UTC 21 November 2018
Temperature: 28.0°C (82°F)
Dewpoint: 12.0°C (54°F) [RH = 37%]
Pressure (altimeter): 30.09 inches Hg (1019.0 mb)
Winds: from the E (90 degrees) at 10 MPH (9 knots; 4.6 m/s)
Visibility: 3 miles ( 5 km)
Ceiling: at least 12,000 feet AGL
Clouds: sky clear below 12,000 feet AGL
Weather: HZ  (haze)

 AIRPORT MAP

 RUNWAY INFORMATION
Runway 06 Runway length 3420 ft Runway width 148 ft
Runway elevation 0 ft Runway displaced threshold 427 ft Runway heading 55
Runway 24 Runway length 3420 ft Runway width 148 ft
Runway elevation 0 ft Runway displaced threshold 427 ft Runway heading 235
Runway 12 Runway length 6700 ft Runway width 148 ft
Runway elevation 1713 ft Runway displaced threshold 0 ft Runway heading 118
Runway 30 Runway length 6700 ft Runway width 148 ft
Runway elevation 1709 ft Runway displaced threshold 0 ft Runway heading 298

 AIRPORT FREQUENCIES
Type APP Name APP Frequency 118.05 MHZ
Type ATIS Name Frequency 127.25 MHZ
Type TWR Name TWR Frequency 118.05 MHZ
Type VOR Name BPL Frequency 117.1 MHZ

 AIRPORT NEAR NAVIGATION AIDS
Type VOR-DME Name Bhopal Frequency 117100 KHZ



Powered by Virtual Airlines Manager [v2.6.2]